createdAt,value
2023-03-29T00:02:08.015Z,-2.92
2023-03-29T00:04:39.212Z,-2.89
2023-03-29T00:07:08.783Z,-2.95
2023-03-29T00:09:38.802Z,-2.96
2023-03-29T00:12:08.697Z,-3.01
2023-03-29T00:14:38.909Z,-3.04
2023-03-29T00:17:10.006Z,-3.08
2023-03-29T00:19:40.026Z,-3.13
2023-03-29T00:22:09.508Z,-3.10
2023-03-29T00:24:39.614Z,-3.14
2023-03-29T00:27:09.366Z,-3.13
2023-03-29T00:29:40.620Z,-3.15
2023-03-29T00:32:11.687Z,-3.17
2023-03-29T00:34:43.034Z,-3.18
2023-03-29T00:37:15.079Z,-3.20
2023-03-29T00:39:45.609Z,-3.24
2023-03-29T00:42:15.908Z,-3.22
2023-03-29T00:44:59.790Z,-3.21
2023-03-29T00:47:32.731Z,-3.24
2023-03-29T00:50:04.688Z,-3.19
2023-03-29T00:52:35.341Z,-3.18
2023-03-29T00:55:07.999Z,-3.16
2023-03-29T00:57:39.171Z,-3.16
2023-03-29T01:00:11.081Z,-3.16
2023-03-29T01:02:44.121Z,-3.14
2023-03-29T01:05:17.740Z,-3.11
2023-03-29T01:07:51.312Z,-3.12
2023-03-29T01:10:25.081Z,-3.11
2023-03-29T01:12:58.520Z,-3.02
2023-03-29T01:15:29.294Z,-3.02
2023-03-29T01:18:02.151Z,-3.03
2023-03-29T01:20:39.611Z,-3.06
2023-03-29T01:23:16.135Z,-3.11
2023-03-29T01:25:50.056Z,-3.06
2023-03-29T01:28:23.723Z,-3.10
2023-03-29T01:30:58.166Z,-3.05
2023-03-29T01:33:29.779Z,-3.06
2023-03-29T01:36:05.005Z,-3.02
2023-03-29T01:38:38.114Z,-3.01
2023-03-29T01:41:08.184Z,-3.04
2023-03-29T01:43:43.643Z,-3.11
2023-03-29T01:46:16.891Z,-3.15
2023-03-29T01:48:49.092Z,-3.18
2023-03-29T01:51:23.013Z,-3.20
2023-03-29T01:53:55.203Z,-3.18
2023-03-29T01:56:26.773Z,-3.18
2023-03-29T01:58:59.201Z,-3.23
2023-03-29T02:01:31.707Z,-3.29
2023-03-29T02:04:04.366Z,-3.28
2023-03-29T02:06:37.900Z,-3.30
2023-03-29T02:09:07.725Z,-3.33
2023-03-29T02:11:38.115Z,-3.39
2023-03-29T02:14:10.106Z,-3.40
2023-03-29T02:16:40.679Z,-3.40
2023-03-29T02:19:11.391Z,-3.39
2023-03-29T02:21:48.415Z,-3.39
2023-03-29T02:24:19.502Z,-3.39
2023-03-29T02:26:50.073Z,-3.45
2023-03-29T02:29:21.287Z,-3.50
2023-03-29T02:31:52.992Z,-3.53
2023-03-29T02:34:24.962Z,-3.52
2023-03-29T02:36:56.912Z,-3.54
2023-03-29T02:39:27.832Z,-3.57
2023-03-29T02:41:57.807Z,-3.57
2023-03-29T02:44:30.401Z,-3.48
2023-03-29T02:47:02.747Z,-3.53
2023-03-29T02:49:32.437Z,-3.56
2023-03-29T02:52:06.996Z,-3.55
2023-03-29T02:54:38.203Z,-3.53
2023-03-29T02:57:08.325Z,-3.52
2023-03-29T02:59:41.221Z,-3.55
2023-03-29T03:02:11.825Z,-3.56
2023-03-29T03:04:42.479Z,-3.54
2023-03-29T03:07:12.398Z,-3.62
2023-03-29T03:09:42.123Z,-3.61
2023-03-29T03:12:12.292Z,-3.66
2023-03-29T03:14:43.438Z,-3.67
2023-03-29T03:17:14.379Z,-3.77
2023-03-29T03:19:44.288Z,-3.86
2023-03-29T03:22:14.189Z,-3.91
2023-03-29T03:24:43.721Z,-3.97
2023-03-29T03:27:14.724Z,-3.89
2023-03-29T03:29:45.802Z,-4.02
2023-03-29T03:32:18.860Z,-4.06
2023-03-29T03:35:14.573Z,-4.13
2023-03-29T03:37:44.512Z,-4.22
2023-03-29T03:40:14.524Z,-4.26
2023-03-29T03:42:45.090Z,-4.29
2023-03-29T03:45:16.813Z,-4.40
2023-03-29T03:47:55.988Z,-4.47
2023-03-29T03:50:34.571Z,-4.47
2023-03-29T03:53:05.144Z,-4.56
2023-03-29T03:55:56.193Z,-4.58
2023-03-29T03:58:30.044Z,-4.62
2023-03-29T04:01:01.896Z,-4.66
2023-03-29T04:03:44.478Z,-4.65
2023-03-29T04:06:17.528Z,-4.73
2023-03-29T04:09:16.703Z,-4.76
2023-03-29T04:11:53.328Z,-4.76
2023-03-29T04:14:23.559Z,-4.83
2023-03-29T04:17:13.060Z,-4.88
2023-03-29T04:20:10.084Z,-4.91
2023-03-29T04:22:39.993Z,-4.94
2023-03-29T04:25:10.668Z,-4.94
2023-03-29T04:27:42.922Z,-4.94
2023-03-29T04:30:33.105Z,-4.98
2023-03-29T04:33:04.210Z,-4.99
2023-03-29T04:35:34.878Z,-5.01
2023-03-29T04:38:10.304Z,-4.97
2023-03-29T04:40:41.378Z,-4.95
2023-03-29T04:43:14.789Z,-5.04
2023-03-29T04:45:55.652Z,-5.03
2023-03-29T04:48:49.663Z,-5.11
2023-03-29T04:51:22.461Z,-5.10
2023-03-29T04:53:54.609Z,-5.07
2023-03-29T04:56:25.445Z,-5.02
2023-03-29T04:59:13.580Z,-5.07
2023-03-29T05:01:43.937Z,-5.12
2023-03-29T05:04:15.834Z,-5.08
2023-03-29T05:06:59.088Z,-5.08
2023-03-29T05:09:29.177Z,-5.09
2023-03-29T05:11:59.220Z,-5.09
2023-03-29T05:14:31.037Z,-5.07
2023-03-29T05:17:01.568Z,-5.01
2023-03-29T05:19:32.747Z,-5.02
2023-03-29T05:22:02.877Z,-5.03
2023-03-29T05:24:32.622Z,-5.02
2023-03-29T05:27:07.602Z,-4.99
2023-03-29T05:29:39.280Z,-4.94
2023-03-29T05:32:27.386Z,-4.88
2023-03-29T05:34:58.576Z,-4.77
2023-03-29T05:37:29.326Z,-4.72
2023-03-29T05:40:05.617Z,-4.66
2023-03-29T05:42:43.803Z,-4.63
2023-03-29T05:45:13.963Z,-4.53
2023-03-29T05:47:44.109Z,-4.47
2023-03-29T05:50:15.620Z,-4.41
2023-03-29T05:52:46.193Z,-4.31
2023-03-29T05:55:15.854Z,-4.20
2023-03-29T05:57:46.254Z,-4.11
2023-03-29T06:00:20.261Z,-4.02
2023-03-29T06:02:51.076Z,-3.94
2023-03-29T06:05:23.084Z,-3.78
2023-03-29T06:08:01.265Z,-3.63
2023-03-29T06:11:04.565Z,-3.42
2023-03-29T06:13:54.216Z,-3.24
2023-03-29T06:16:24.177Z,-2.98
2023-03-29T06:18:54.988Z,-2.64
2023-03-29T06:21:27.318Z,-2.41
2023-03-29T06:23:58.531Z,-2.04
2023-03-29T06:26:30.445Z,-1.74
2023-03-29T06:29:00.524Z,-1.47
2023-03-29T06:31:31.579Z,-1.18
2023-03-29T06:34:02.049Z,-1.11
2023-03-29T06:37:02.446Z,-0.89
2023-03-29T06:39:33.247Z,-0.69
2023-03-29T06:42:29.067Z,-0.41
2023-03-29T06:45:18.080Z,0.31
2023-03-29T06:47:51.098Z,0.69
2023-03-29T06:50:21.491Z,1.18
2023-03-29T06:52:58.948Z,1.63
2023-03-29T06:55:29.179Z,2.06
2023-03-29T06:58:02.312Z,2.11
2023-03-29T07:00:36.071Z,2.76
2023-03-29T07:03:13.679Z,3.37
2023-03-29T07:05:45.282Z,3.55
2023-03-29T07:08:31.730Z,3.69
2023-03-29T07:11:07.420Z,4.53
2023-03-29T07:13:54.745Z,4.58
2023-03-29T07:16:24.813Z,5.10
2023-03-29T07:19:14.617Z,5.31
2023-03-29T07:22:03.005Z,5.47
2023-03-29T07:24:47.805Z,5.87
2023-03-29T07:27:18.438Z,5.78
2023-03-29T07:29:51.688Z,5.59
2023-03-29T07:32:22.749Z,6.32
2023-03-29T07:35:20.270Z,6.08
2023-03-29T07:37:50.538Z,5.96
2023-03-29T07:40:24.192Z,5.47
2023-03-29T07:43:00.703Z,5.88
2023-03-29T07:45:34.081Z,6.00
2023-03-29T07:48:08.828Z,6.01
2023-03-29T07:50:51.082Z,6.13
2023-03-29T07:53:29.872Z,6.49
2023-03-29T07:56:03.233Z,7.01
2023-03-29T07:58:53.620Z,6.93
2023-03-29T08:01:23.826Z,7.68
2023-03-29T08:04:12.792Z,7.71
2023-03-29T08:07:01.533Z,8.09
2023-03-29T08:09:50.656Z,8.05
2023-03-29T08:12:25.078Z,8.23
2023-03-29T08:14:56.045Z,7.92
2023-03-29T08:17:31.024Z,7.51
2023-03-29T08:20:02.528Z,7.93
2023-03-29T08:22:33.269Z,7.50
2023-03-29T08:25:07.281Z,7.62
2023-03-29T08:27:46.984Z,8.16
2023-03-29T08:30:21.883Z,8.80
2023-03-29T08:32:55.369Z,8.90
2023-03-29T08:35:27.025Z,9.04
2023-03-29T08:38:08.617Z,8.79
2023-03-29T08:40:38.754Z,8.87
2023-03-29T08:43:22.978Z,9.00
2023-03-29T08:46:33.090Z,9.41
2023-03-29T08:49:20.395Z,9.87
2023-03-29T08:51:54.492Z,10.16
2023-03-29T08:54:27.410Z,9.62
2023-03-29T08:57:28.379Z,9.45
2023-03-29T09:00:08.112Z,10.06
2023-03-29T09:02:43.005Z,10.27
2023-03-29T09:05:20.719Z,9.54
2023-03-29T09:08:01.327Z,10.75
2023-03-29T09:10:34.887Z,10.60
2023-03-29T09:13:11.902Z,10.83
2023-03-29T09:15:50.690Z,11.04
2023-03-29T09:18:39.365Z,10.66
2023-03-29T09:21:15.895Z,11.18
2023-03-29T09:23:58.360Z,11.29
2023-03-29T09:26:50.225Z,11.14
2023-03-29T09:29:51.773Z,10.76
2023-03-29T09:32:32.432Z,9.72
2023-03-29T09:35:14.568Z,9.72
2023-03-29T09:37:44.385Z,9.62
2023-03-29T09:40:17.444Z,9.22
2023-03-29T09:42:57.494Z,9.79
2023-03-29T09:45:27.599Z,8.99
2023-03-29T09:48:00.405Z,9.38
2023-03-29T09:50:37.154Z,9.02
2023-03-29T09:53:10.061Z,8.73
2023-03-29T09:55:46.340Z,9.35
2023-03-29T09:58:40.543Z,9.55
2023-03-29T10:01:14.645Z,9.56
2023-03-29T10:03:49.452Z,10.81
2023-03-29T10:06:21.706Z,9.97
2023-03-29T10:08:59.191Z,10.20
2023-03-29T10:11:40.170Z,10.70
2023-03-29T10:14:14.454Z,10.58
2023-03-29T10:16:49.330Z,10.84
2023-03-29T10:19:32.510Z,9.86
2023-03-29T10:22:08.498Z,10.23
2023-03-29T10:25:05.757Z,10.25
2023-03-29T10:27:53.346Z,8.60
2023-03-29T10:30:28.629Z,8.15
2023-03-29T10:33:06.407Z,8.24
2023-03-29T10:35:42.657Z,8.10
2023-03-29T10:38:25.256Z,8.04
2023-03-29T10:41:17.326Z,8.05
2023-03-29T10:44:14.425Z,8.09
2023-03-29T10:46:49.038Z,8.32
2023-03-29T10:49:29.991Z,8.45
2023-03-29T10:52:10.058Z,8.48
2023-03-29T10:54:53.980Z,8.24
2023-03-29T10:57:38.365Z,8.45
2023-03-29T11:00:27.428Z,8.72
2023-03-29T11:03:21.453Z,8.71
2023-03-29T11:06:00.841Z,8.73
2023-03-29T11:08:44.277Z,8.82
2023-03-29T11:11:38.247Z,8.89
2023-03-29T11:14:26.144Z,8.97
2023-03-29T11:17:18.152Z,8.57
2023-03-29T11:20:27.736Z,8.53
2023-03-29T11:23:09.508Z,8.82
2023-03-29T11:26:03.262Z,8.82
2023-03-29T11:29:06.467Z,8.97
2023-03-29T11:31:43.290Z,8.84
2023-03-29T11:34:22.588Z,8.85
2023-03-29T11:37:05.187Z,8.93
2023-03-29T11:39:49.244Z,8.83
2023-03-29T11:42:41.738Z,8.72
2023-03-29T11:46:00.121Z,8.39
2023-03-29T11:48:38.009Z,8.35
2023-03-29T11:51:18.868Z,8.27
2023-03-29T11:54:04.716Z,8.55
2023-03-29T11:56:57.498Z,8.30
2023-03-29T11:59:57.478Z,8.25
2023-03-29T12:02:38.851Z,8.43
2023-03-29T12:05:23.149Z,8.18
2023-03-29T12:08:01.950Z,8.10
2023-03-29T12:10:37.721Z,8.26
2023-03-29T12:13:19.658Z,8.34
2023-03-29T12:15:59.349Z,8.23
2023-03-29T12:18:40.648Z,8.44
2023-03-29T12:21:50.792Z,8.52
2023-03-29T12:24:27.555Z,8.28
2023-03-29T12:27:15.319Z,8.31
2023-03-29T12:30:17.969Z,8.15
2023-03-29T12:33:16.185Z,8.23
2023-03-29T12:36:48.706Z,8.23
2023-03-29T12:40:08.361Z,8.32
2023-03-29T12:43:09.040Z,8.35
2023-03-29T12:46:21.857Z,8.10
2023-03-29T12:49:13.175Z,8.02
2023-03-29T12:52:10.253Z,8.03
2023-03-29T12:54:59.094Z,8.19
2023-03-29T12:57:55.232Z,8.53
2023-03-29T13:00:36.562Z,8.72
2023-03-29T13:03:31.762Z,9.06
2023-03-29T13:06:16.560Z,9.35
2023-03-29T13:09:38.250Z,9.05
2023-03-29T13:12:40.987Z,8.72
2023-03-29T13:15:38.398Z,8.45
2023-03-29T13:18:56.858Z,8.39
2023-03-29T13:22:02.260Z,8.66
2023-03-29T13:24:48.870Z,8.80
2023-03-29T13:27:51.443Z,8.94
2023-03-29T13:35:06.780Z,8.90
2023-03-29T13:37:58.717Z,8.64
2023-03-29T13:44:11.822Z,8.64
2023-03-29T13:47:12.133Z,8.54
2023-03-29T13:50:16.023Z,8.70
2023-03-29T13:53:26.061Z,9.20
2023-03-29T13:56:04.309Z,9.28
2023-03-29T13:58:40.219Z,9.54
2023-03-29T14:01:14.707Z,8.70
2023-03-29T14:04:10.251Z,8.62
2023-03-29T14:06:53.515Z,8.53
2023-03-29T14:09:50.223Z,8.62
2023-03-29T14:12:29.033Z,8.69
2023-03-29T14:15:05.500Z,8.68
2023-03-29T14:17:43.619Z,8.58
2023-03-29T14:21:14.059Z,8.56
2023-03-29T14:23:47.714Z,8.69
2023-03-29T14:26:38.352Z,8.27
2023-03-29T14:29:31.982Z,8.33
2023-03-29T14:32:33.808Z,8.39
2023-03-29T14:35:45.028Z,8.27
2023-03-29T14:39:07.942Z,8.19
2023-03-29T14:42:10.976Z,8.15
2023-03-29T14:44:52.586Z,8.05
2023-03-29T14:47:59.860Z,8.10
2023-03-29T14:51:03.243Z,8.10
2023-03-29T14:53:53.151Z,7.95
2023-03-29T14:56:37.078Z,7.90
2023-03-29T14:59:32.007Z,7.90
2023-03-29T15:03:03.885Z,7.92
2023-03-29T15:06:12.591Z,7.85
2023-03-29T15:09:06.000Z,7.85
2023-03-29T15:11:52.765Z,7.84
2023-03-29T15:14:30.976Z,7.83
2023-03-29T15:17:09.438Z,7.84
2023-03-29T15:19:56.409Z,7.80
2023-03-29T15:22:53.040Z,7.75
2023-03-29T15:25:37.811Z,7.68
2023-03-29T15:28:42.720Z,7.68
2023-03-29T15:32:00.532Z,7.72
2023-03-29T15:34:45.918Z,7.65
2023-03-29T15:37:37.757Z,7.56
2023-03-29T15:40:15.124Z,7.47
2023-03-29T15:43:08.692Z,7.40
2023-03-29T15:46:54.615Z,7.38
2023-03-29T15:50:14.791Z,7.36
2023-03-29T15:53:15.113Z,7.38
2023-03-29T15:56:06.307Z,7.31
2023-03-29T15:59:02.426Z,7.25
2023-03-29T16:01:44.898Z,7.23
2023-03-29T16:05:00.468Z,7.24
2023-03-29T16:07:44.015Z,7.24
2023-03-29T16:10:25.935Z,7.18
2023-03-29T16:13:06.159Z,7.16
2023-03-29T16:15:58.925Z,7.17
2023-03-29T16:18:43.469Z,7.16
2023-03-29T16:21:21.882Z,7.16
2023-03-29T16:24:34.335Z,7.14
2023-03-29T16:27:14.085Z,7.11
2023-03-29T16:30:01.277Z,7.08
2023-03-29T16:33:33.601Z,7.00
2023-03-29T16:36:21.722Z,6.96
2023-03-29T16:39:30.899Z,6.92
2023-03-29T16:42:21.717Z,6.89
2023-03-29T16:45:15.800Z,6.87
2023-03-29T16:48:06.522Z,6.78
2023-03-29T16:50:41.994Z,6.75
2023-03-29T16:53:22.091Z,6.72
2023-03-29T16:55:59.504Z,6.66
2023-03-29T16:58:53.415Z,6.65
2023-03-29T17:01:33.024Z,6.59
2023-03-29T17:04:24.168Z,6.56
2023-03-29T17:07:05.486Z,6.53
2023-03-29T17:09:50.357Z,6.44
2023-03-29T17:12:41.386Z,6.38
2023-03-29T17:15:19.626Z,6.40
2023-03-29T17:18:21.515Z,6.39
2023-03-29T17:21:21.805Z,6.37
2023-03-29T17:24:08.336Z,6.33
2023-03-29T17:28:05.828Z,6.23
2023-03-29T17:38:55.058Z,6.07
2023-03-29T17:42:11.649Z,6.03
2023-03-29T18:06:13.884Z,5.76
2023-03-29T18:13:33.698Z,5.74
2023-03-29T18:16:26.305Z,5.71
2023-03-29T18:19:54.692Z,5.69
2023-03-29T18:23:35.001Z,5.66
2023-03-29T18:37:57.984Z,5.61
2023-03-29T19:09:05.174Z,5.27
2023-03-29T19:29:45.214Z,4.97
2023-03-29T19:32:18.659Z,4.97
2023-03-29T19:34:52.617Z,4.90
2023-03-29T19:37:26.274Z,4.91
2023-03-29T19:40:00.548Z,4.93
2023-03-29T19:42:39.075Z,4.92
2023-03-29T19:45:17.664Z,4.89
2023-03-29T19:48:02.970Z,4.87
2023-03-29T19:50:36.116Z,4.88
2023-03-29T19:53:07.824Z,4.88
2023-03-29T19:55:40.898Z,4.89
2023-03-29T19:58:14.115Z,4.88
2023-03-29T20:00:46.906Z,4.88
2023-03-29T20:03:19.009Z,4.93
2023-03-29T20:05:52.579Z,4.95
2023-03-29T20:08:26.570Z,4.95
2023-03-29T20:11:03.551Z,4.94
2023-03-29T20:13:39.694Z,4.93
2023-03-29T20:16:18.025Z,4.93
2023-03-29T20:18:57.052Z,4.92
2023-03-29T20:21:29.557Z,4.94
2023-03-29T20:24:02.068Z,4.91
2023-03-29T20:26:33.605Z,4.90
2023-03-29T20:29:03.711Z,4.91
2023-03-29T20:31:34.816Z,4.93
2023-03-29T20:34:04.917Z,4.94
2023-03-29T20:36:34.880Z,4.94
2023-03-29T20:39:06.786Z,4.96
2023-03-29T20:41:39.157Z,4.94
2023-03-29T20:44:10.859Z,4.91
2023-03-29T20:46:54.614Z,4.90
2023-03-29T20:49:27.503Z,4.92
2023-03-29T20:52:03.068Z,4.92
2023-03-29T20:54:36.287Z,4.91
2023-03-29T20:57:10.094Z,4.88
2023-03-29T20:59:43.959Z,4.87
2023-03-29T21:02:19.221Z,4.87
2023-03-29T21:04:52.006Z,4.88
2023-03-29T21:07:22.224Z,4.85
2023-03-29T21:09:52.425Z,4.88
2023-03-29T21:12:23.772Z,4.86
2023-03-29T21:14:53.797Z,4.86
2023-03-29T21:17:24.922Z,4.84
2023-03-29T21:19:55.369Z,4.86
2023-03-29T21:22:25.017Z,4.85
2023-03-29T21:24:55.096Z,4.85
2023-03-29T21:27:24.704Z,4.88
2023-03-29T21:29:54.867Z,4.89
2023-03-29T21:32:26.349Z,4.86
2023-03-29T21:34:56.896Z,4.88
2023-03-29T21:37:26.661Z,4.93
2023-03-29T21:39:56.735Z,4.94
2023-03-29T21:42:26.528Z,4.91
2023-03-29T21:44:56.795Z,4.94
2023-03-29T21:47:28.039Z,4.96
2023-03-29T21:49:58.339Z,4.98
2023-03-29T21:52:28.035Z,5.00
2023-03-29T21:54:58.093Z,5.03
2023-03-29T21:57:27.880Z,5.03
2023-03-29T21:59:58.287Z,5.05
2023-03-29T22:02:29.408Z,5.08
2023-03-29T22:04:59.566Z,5.10
2023-03-29T22:07:29.277Z,5.09
2023-03-29T22:10:04.556Z,5.07
2023-03-29T22:12:37.346Z,5.11
2023-03-29T22:15:08.156Z,5.12
2023-03-29T22:17:39.375Z,5.12
2023-03-29T22:20:13.123Z,5.09
2023-03-29T22:22:45.501Z,5.06
2023-03-29T22:25:16.042Z,5.11
2023-03-29T22:27:46.522Z,5.09
2023-03-29T22:30:17.409Z,5.13
2023-03-29T22:32:48.401Z,5.18
2023-03-29T22:35:18.606Z,5.18
2023-03-29T22:37:48.087Z,5.15
2023-03-29T22:40:18.336Z,5.09
2023-03-29T22:42:48.019Z,5.09
2023-03-29T22:45:18.138Z,5.14
2023-03-29T22:47:49.280Z,5.15
2023-03-29T22:50:19.458Z,5.12
2023-03-29T22:52:49.060Z,5.11
2023-03-29T22:55:18.900Z,5.09
2023-03-29T22:57:48.734Z,5.07
2023-03-29T23:00:19.490Z,5.06
2023-03-29T23:02:50.955Z,5.03
2023-03-29T23:05:20.981Z,5.01
2023-03-29T23:07:50.832Z,5.03
2023-03-29T23:10:20.801Z,5.02
2023-03-29T23:12:50.582Z,4.98
2023-03-29T23:15:23.018Z,4.92
2023-03-29T23:17:54.120Z,4.96
2023-03-29T23:20:24.411Z,4.96
2023-03-29T23:22:54.071Z,4.91
2023-03-29T23:25:52.151Z,4.87
2023-03-29T23:28:23.830Z,4.87
2023-03-29T23:30:58.132Z,4.86
2023-03-29T23:33:30.919Z,4.84
2023-03-29T23:36:02.321Z,4.52
2023-03-29T23:38:32.268Z,4.78
2023-03-29T23:41:03.158Z,4.74
2023-03-29T23:43:34.215Z,4.71
2023-03-29T23:46:05.580Z,4.67
2023-03-29T23:48:36.548Z,4.63
2023-03-29T23:51:08.097Z,4.58
2023-03-29T23:53:37.697Z,4.55
2023-03-29T23:56:08.081Z,4.54
2023-03-29T23:58:38.831Z,4.51
